sensor_id;sensor_type;location;lat;lon;timestamp;pressure;altitude;pressure_sealevel;temperature;humidity
73242;BME280;65659;49.234;-2.094;2023-02-14T00:00:10;102003.05;;;25.55;23.53
73242;BME280;65659;49.234;-2.094;2023-02-14T00:02:35;102004.52;;;25.64;23.51
73242;BME280;65659;49.234;-2.094;2023-02-14T00:05:01;102002.72;;;25.85;23.50
73242;BME280;65659;49.234;-2.094;2023-02-14T00:07:26;102000.19;;;25.81;23.50
73242;BME280;65659;49.234;-2.094;2023-02-14T00:09:51;102004.37;;;25.99;23.61
73242;BME280;65659;49.234;-2.094;2023-02-14T00:12:17;102003.05;;;25.71;23.62
73242;BME280;65659;49.234;-2.094;2023-02-14T00:14:42;102005.90;;;25.68;23.67
73242;BME280;65659;49.234;-2.094;2023-02-14T00:17:08;102001.48;;;25.68;23.66
73242;BME280;65659;49.234;-2.094;2023-02-14T00:19:33;102001.06;;;25.93;23.65
73242;BME280;65659;49.234;-2.094;2023-02-14T00:21:59;101998.46;;;25.71;23.64
73242;BME280;65659;49.234;-2.094;2023-02-14T00:24:25;101997.10;;;25.72;23.63
73242;BME280;65659;49.234;-2.094;2023-02-14T00:26:50;101997.13;;;25.98;23.62
73242;BME280;65659;49.234;-2.094;2023-02-14T00:29:17;101997.48;;;25.72;23.62
73242;BME280;65659;49.234;-2.094;2023-02-14T00:31:40;101996.93;;;25.75;23.65
73242;BME280;65659;49.234;-2.094;2023-02-14T00:34:06;101995.87;;;25.76;23.63
73242;BME280;65659;49.234;-2.094;2023-02-14T00:36:32;101996.03;;;26.23;23.61
73242;BME280;65659;49.234;-2.094;2023-02-14T00:38:57;101992.76;;;25.55;23.61
73242;BME280;65659;49.234;-2.094;2023-02-14T00:41:22;101987.45;;;25.88;23.51
73242;BME280;65659;49.234;-2.094;2023-02-14T00:43:49;101983.50;;;25.83;23.54
73242;BME280;65659;49.234;-2.094;2023-02-14T00:46:14;101983.88;;;26.04;23.57
73242;BME280;65659;49.234;-2.094;2023-02-14T00:48:39;101987.95;;;25.83;23.52
73242;BME280;65659;49.234;-2.094;2023-02-14T00:51:05;101989.22;;;25.80;23.54
73242;BME280;65659;49.234;-2.094;2023-02-14T00:53:30;101988.19;;;25.59;23.52
73242;BME280;65659;49.234;-2.094;2023-02-14T00:55:56;101987.31;;;26.04;23.50
73242;BME280;65659;49.234;-2.094;2023-02-14T00:58:21;101990.68;;;25.77;23.54
73242;BME280;65659;49.234;-2.094;2023-02-14T01:00:47;101994.26;;;25.77;23.57
73242;BME280;65659;49.234;-2.094;2023-02-14T01:03:12;101995.97;;;25.74;23.59
73242;BME280;65659;49.234;-2.094;2023-02-14T01:05:38;101993.03;;;25.74;23.58
73242;BME280;65659;49.234;-2.094;2023-02-14T01:08:04;101996.21;;;25.74;23.61
73242;BME280;65659;49.234;-2.094;2023-02-14T01:10:29;101995.40;;;25.97;23.58
73242;BME280;65659;49.234;-2.094;2023-02-14T01:12:55;101994.06;;;25.96;23.62
73242;BME280;65659;49.234;-2.094;2023-02-14T01:15:21;101994.56;;;25.96;23.58
73242;BME280;65659;49.234;-2.094;2023-02-14T01:17:46;101991.07;;;26.05;23.58
73242;BME280;65659;49.234;-2.094;2023-02-14T01:20:11;101991.66;;;25.81;23.55
73242;BME280;65659;49.234;-2.094;2023-02-14T01:22:36;101994.10;;;25.77;23.56
73242;BME280;65659;49.234;-2.094;2023-02-14T01:25:02;101993.71;;;25.98;23.62
73242;BME280;65659;49.234;-2.094;2023-02-14T01:27:28;101995.53;;;25.74;23.62
73242;BME280;65659;49.234;-2.094;2023-02-14T01:29:53;101995.05;;;25.97;23.66
73242;BME280;65659;49.234;-2.094;2023-02-14T01:32:18;101997.81;;;25.74;23.61
73242;BME280;65659;49.234;-2.094;2023-02-14T01:34:43;101998.48;;;25.70;23.66
73242;BME280;65659;49.234;-2.094;2023-02-14T01:37:08;101999.30;;;25.67;23.68
73242;BME280;65659;49.234;-2.094;2023-02-14T01:39:34;101998.88;;;25.89;23.72
73242;BME280;65659;49.234;-2.094;2023-02-14T01:41:59;102001.22;;;25.67;23.70
73242;BME280;65659;49.234;-2.094;2023-02-14T01:46:50;102000.46;;;25.76;23.61
73242;BME280;65659;49.234;-2.094;2023-02-14T01:49:19;101997.15;;;25.76;23.58
73242;BME280;65659;49.234;-2.094;2023-02-14T01:51:47;101994.73;;;25.53;23.57
73242;BME280;65659;49.234;-2.094;2023-02-14T01:54:07;101993.63;;;25.83;23.51
73242;BME280;65659;49.234;-2.094;2023-02-14T01:56:40;101990.79;;;25.58;23.49
73242;BME280;65659;49.234;-2.094;2023-02-14T01:59:00;101993.66;;;25.79;23.54
73242;BME280;65659;49.234;-2.094;2023-02-14T02:01:23;101994.08;;;25.75;23.59
73242;BME280;65659;49.234;-2.094;2023-02-14T02:03:50;101992.35;;;25.74;23.62
73242;BME280;65659;49.234;-2.094;2023-02-14T02:06:16;101989.10;;;25.74;23.63
73242;BME280;65659;49.234;-2.094;2023-02-14T02:08:44;101986.84;;;25.74;23.61
73242;BME280;65659;49.234;-2.094;2023-02-14T02:11:05;101981.41;;;25.73;23.57
73242;BME280;65659;49.234;-2.094;2023-02-14T02:13:31;101980.59;;;25.73;23.62
73242;BME280;65659;49.234;-2.094;2023-02-14T02:16:09;101981.32;;;25.71;23.64
73242;BME280;65659;49.234;-2.094;2023-02-14T02:18:29;101976.80;;;25.73;23.62
73242;BME280;65659;49.234;-2.094;2023-02-14T02:23:30;101981.29;;;25.71;23.62
73242;BME280;65659;49.234;-2.094;2023-02-14T02:25:53;101981.38;;;25.76;23.60
73242;BME280;65659;49.234;-2.094;2023-02-14T02:28:14;101979.67;;;25.75;23.62
73242;BME280;65659;49.234;-2.094;2023-02-14T02:33:13;101970.95;;;25.83;23.52
73242;BME280;65659;49.234;-2.094;2023-02-14T02:35:33;101968.23;;;25.84;23.56
73242;BME280;65659;49.234;-2.094;2023-02-14T02:37:55;101966.12;;;25.84;23.57
73242;BME280;65659;49.234;-2.094;2023-02-14T02:40:23;101965.41;;;25.81;23.63
73242;BME280;65659;49.234;-2.094;2023-02-14T02:42:45;101963.39;;;25.77;23.55
73242;BME280;65659;49.234;-2.094;2023-02-14T02:45:09;101957.98;;;25.75;23.63
73242;BME280;65659;49.234;-2.094;2023-02-14T02:47:37;101954.52;;;25.77;23.61
73242;BME280;65659;49.234;-2.094;2023-02-14T02:49:56;101948.56;;;25.77;23.62
73242;BME280;65659;49.234;-2.094;2023-02-14T02:52:23;101948.30;;;25.75;23.53
73242;BME280;65659;49.234;-2.094;2023-02-14T02:54:47;101947.80;;;25.74;23.60
73242;BME280;65659;49.234;-2.094;2023-02-14T02:57:14;101950.43;;;25.70;23.63
73242;BME280;65659;49.234;-2.094;2023-02-14T02:59:38;101951.68;;;25.70;23.66
73242;BME280;65659;49.234;-2.094;2023-02-14T03:02:05;101950.21;;;25.71;23.57
73242;BME280;65659;49.234;-2.094;2023-02-14T03:04:27;101950.08;;;25.70;23.58
73242;BME280;65659;49.234;-2.094;2023-02-14T03:06:53;101947.54;;;25.75;23.58
73242;BME280;65659;49.234;-2.094;2023-02-14T03:14:16;101948.40;;;25.74;23.61
73242;BME280;65659;49.234;-2.094;2023-02-14T03:16:37;101936.38;;;25.76;23.58
73242;BME280;65659;49.234;-2.094;2023-02-14T03:19:16;101933.87;;;25.72;23.66
73242;BME280;65659;49.234;-2.094;2023-02-14T03:21:30;101932.56;;;25.73;23.60
73242;BME280;65659;49.234;-2.094;2023-02-14T03:23:55;101928.34;;;25.75;23.63
73242;BME280;65659;49.234;-2.094;2023-02-14T03:26:18;101927.38;;;25.94;23.66
73242;BME280;65659;49.234;-2.094;2023-02-14T03:28:45;101924.40;;;25.70;23.67
73242;BME280;65659;49.234;-2.094;2023-02-14T03:31:13;101924.93;;;26.20;23.66
73242;BME280;65659;49.234;-2.094;2023-02-14T03:33:37;101924.18;;;25.70;23.67
73242;BME280;65659;49.234;-2.094;2023-02-14T03:36:02;101921.55;;;25.47;23.64
73242;BME280;65659;49.234;-2.094;2023-02-14T03:38:26;101920.40;;;25.71;23.68
73242;BME280;65659;49.234;-2.094;2023-02-14T03:40:52;101922.53;;;25.96;23.64
73242;BME280;65659;49.234;-2.094;2023-02-14T03:43:17;101919.32;;;25.74;23.67
73242;BME280;65659;49.234;-2.094;2023-02-14T03:45:43;101918.57;;;25.85;23.55
73242;BME280;65659;49.234;-2.094;2023-02-14T03:48:08;101918.24;;;25.83;23.54
73242;BME280;65659;49.234;-2.094;2023-02-14T03:50:33;101918.80;;;25.76;23.58
73242;BME280;65659;49.234;-2.094;2023-02-14T03:52:58;101918.03;;;25.74;23.63
73242;BME280;65659;49.234;-2.094;2023-02-14T03:55:27;101918.40;;;25.72;23.64
73242;BME280;65659;49.234;-2.094;2023-02-14T03:57:54;101916.01;;;25.95;23.64
73242;BME280;65659;49.234;-2.094;2023-02-14T04:00:15;101915.42;;;25.93;23.65
73242;BME280;65659;49.234;-2.094;2023-02-14T04:02:41;101912.82;;;25.68;23.67
73242;BME280;65659;49.234;-2.094;2023-02-14T04:05:11;101909.34;;;25.67;23.65
73242;BME280;65659;49.234;-2.094;2023-02-14T04:07:30;101911.91;;;25.68;23.68
73242;BME280;65659;49.234;-2.094;2023-02-14T04:09:56;101913.71;;;25.67;23.70
73242;BME280;65659;49.234;-2.094;2023-02-14T04:12:21;101912.58;;;25.89;23.69
73242;BME280;65659;49.234;-2.094;2023-02-14T04:14:47;101913.27;;;25.63;23.68
73242;BME280;65659;49.234;-2.094;2023-02-14T04:17:13;101913.35;;;25.63;23.68
73242;BME280;65659;49.234;-2.094;2023-02-14T04:19:39;101910.75;;;25.66;23.67
73242;BME280;65659;49.234;-2.094;2023-02-14T04:22:04;101910.98;;;25.74;23.56
73242;BME280;65659;49.234;-2.094;2023-02-14T04:24:30;101908.79;;;25.74;23.58
73242;BME280;65659;49.234;-2.094;2023-02-14T04:26:55;101906.99;;;25.73;23.61
73242;BME280;65659;49.234;-2.094;2023-02-14T04:29:21;101905.43;;;25.71;23.66
73242;BME280;65659;49.234;-2.094;2023-02-14T04:31:46;101907.50;;;25.71;23.65
73242;BME280;65659;49.234;-2.094;2023-02-14T04:34:12;101907.03;;;25.70;23.64
73242;BME280;65659;49.234;-2.094;2023-02-14T04:36:37;101908.03;;;25.64;23.70
73242;BME280;65659;49.234;-2.094;2023-02-14T04:39:03;101909.63;;;25.63;23.73
73242;BME280;65659;49.234;-2.094;2023-02-14T04:41:28;101911.68;;;25.63;23.73
73242;BME280;65659;49.234;-2.094;2023-02-14T04:43:54;101912.19;;;25.64;23.72
73242;BME280;65659;49.234;-2.094;2023-02-14T04:46:20;101910.41;;;25.64;23.72
73242;BME280;65659;49.234;-2.094;2023-02-14T04:48:45;101908.35;;;25.63;23.73
73242;BME280;65659;49.234;-2.094;2023-02-14T04:51:11;101906.91;;;25.63;23.69
73242;BME280;65659;49.234;-2.094;2023-02-14T04:53:36;101908.64;;;25.64;23.71
73242;BME280;65659;49.234;-2.094;2023-02-14T04:56:02;101910.16;;;25.37;23.68
73242;BME280;65659;49.234;-2.094;2023-02-14T04:58:28;101910.69;;;25.71;23.58
73242;BME280;65659;49.234;-2.094;2023-02-14T05:00:54;101915.62;;;25.72;23.60
73242;BME280;65659;49.234;-2.094;2023-02-14T05:03:19;101916.52;;;25.69;23.59
73242;BME280;65659;49.234;-2.094;2023-02-14T05:05:44;101916.94;;;25.90;23.68
73242;BME280;65659;49.234;-2.094;2023-02-14T05:08:09;101915.90;;;25.67;23.63
73242;BME280;65659;49.234;-2.094;2023-02-14T05:10:35;101916.18;;;25.89;23.64
73242;BME280;65659;49.234;-2.094;2023-02-14T05:13:01;101917.32;;;25.85;23.63
73242;BME280;65659;49.234;-2.094;2023-02-14T05:15:26;101916.63;;;25.85;23.64
73242;BME280;65659;49.234;-2.094;2023-02-14T05:17:52;101916.26;;;25.62;23.67
73242;BME280;65659;49.234;-2.094;2023-02-14T05:20:18;101917.08;;;25.60;23.66
73242;BME280;65659;49.234;-2.094;2023-02-14T05:22:43;101916.97;;;25.60;23.68
73242;BME280;65659;49.234;-2.094;2023-02-14T05:25:08;101915.84;;;25.58;23.72
73242;BME280;65659;49.234;-2.094;2023-02-14T05:27:33;101914.44;;;25.76;23.77
73242;BME280;65659;49.234;-2.094;2023-02-14T05:29:59;101907.79;;;25.57;23.71
73242;BME280;65659;49.234;-2.094;2023-02-14T05:32:25;101905.53;;;25.58;23.71
73242;BME280;65659;49.234;-2.094;2023-02-14T05:34:51;101907.04;;;25.66;23.63
73242;BME280;65659;49.234;-2.094;2023-02-14T05:37:16;101906.13;;;25.93;23.59
73242;BME280;65659;49.234;-2.094;2023-02-14T05:39:42;101903.75;;;25.66;23.64
73242;BME280;65659;49.234;-2.094;2023-02-14T05:42:07;101906.29;;;25.67;23.59
73242;BME280;65659;49.234;-2.094;2023-02-14T05:44:33;101902.56;;;25.62;23.63
73242;BME280;65659;49.234;-2.094;2023-02-14T05:46:59;101902.21;;;25.62;23.68
73242;BME280;65659;49.234;-2.094;2023-02-14T05:49:24;101900.31;;;25.63;23.64
73242;BME280;65659;49.234;-2.094;2023-02-14T05:51:50;101900.01;;;26.10;23.67
73242;BME280;65659;49.234;-2.094;2023-02-14T05:54:16;101899.18;;;25.61;23.66
73242;BME280;65659;49.234;-2.094;2023-02-14T05:56:42;101900.76;;;25.85;23.67
73242;BME280;65659;49.234;-2.094;2023-02-14T05:59:07;101901.32;;;25.84;23.59
73242;BME280;65659;49.234;-2.094;2023-02-14T06:01:33;101901.20;;;25.60;23.63
73242;BME280;65659;49.234;-2.094;2023-02-14T06:03:58;101901.43;;;25.64;23.59
73242;BME280;65659;49.234;-2.094;2023-02-14T06:06:24;101904.29;;;25.85;23.56
73242;BME280;65659;49.234;-2.094;2023-02-14T06:08:50;101907.44;;;25.61;23.58
73242;BME280;65659;49.234;-2.094;2023-02-14T06:11:15;101905.43;;;25.65;23.49
73242;BME280;65659;49.234;-2.094;2023-02-14T06:13:41;101907.76;;;25.71;23.49
73242;BME280;65659;49.234;-2.094;2023-02-14T06:16:07;101908.35;;;25.63;23.57
73242;BME280;65659;49.234;-2.094;2023-02-14T06:18:32;101907.30;;;25.62;23.53
73242;BME280;65659;49.234;-2.094;2023-02-14T06:20:58;101908.30;;;25.85;23.57
73242;BME280;65659;49.234;-2.094;2023-02-14T06:23:24;101913.46;;;25.81;23.57
73242;BME280;65659;49.234;-2.094;2023-02-14T06:25:49;101913.53;;;25.83;23.58
73242;BME280;65659;49.234;-2.094;2023-02-14T06:28:15;101912.29;;;25.56;23.62
73242;BME280;65659;49.234;-2.094;2023-02-14T06:30:40;101915.75;;;25.54;23.61
73242;BME280;65659;49.234;-2.094;2023-02-14T06:33:06;101918.97;;;25.55;23.61
73242;BME280;65659;49.234;-2.094;2023-02-14T06:35:32;101917.22;;;25.57;23.59
73242;BME280;65659;49.234;-2.094;2023-02-14T06:37:57;101917.70;;;25.81;23.52
73242;BME280;65659;49.234;-2.094;2023-02-14T06:40:23;101912.83;;;25.53;23.56
73242;BME280;65659;49.234;-2.094;2023-02-14T06:42:48;101905.44;;;25.80;23.57
73242;BME280;65659;49.234;-2.094;2023-02-14T06:45:13;101899.13;;;25.79;23.61
73242;BME280;65659;49.234;-2.094;2023-02-14T06:47:39;101900.48;;;25.58;23.52
73242;BME280;65659;49.234;-2.094;2023-02-14T06:50:05;101899.84;;;25.67;23.46
73242;BME280;65659;49.234;-2.094;2023-02-14T06:52:30;101899.48;;;25.87;23.49
73242;BME280;65659;49.234;-2.094;2023-02-14T06:54:55;101898.82;;;25.56;23.52
73242;BME280;65659;49.234;-2.094;2023-02-14T06:57:20;101897.91;;;25.55;23.56
73242;BME280;65659;49.234;-2.094;2023-02-14T06:59:46;101892.82;;;25.78;23.48
73242;BME280;65659;49.234;-2.094;2023-02-14T07:02:11;101893.58;;;25.54;23.50
73242;BME280;65659;49.234;-2.094;2023-02-14T07:04:37;101897.92;;;25.52;23.51
73242;BME280;65659;49.234;-2.094;2023-02-14T07:07:02;101901.53;;;25.75;23.50
73242;BME280;65659;49.234;-2.094;2023-02-14T07:09:28;101902.96;;;25.72;23.51
73242;BME280;65659;49.234;-2.094;2023-02-14T07:11:53;101901.81;;;25.49;23.55
73242;BME280;65659;49.234;-2.094;2023-02-14T07:14:19;101903.86;;;25.74;23.53
73242;BME280;65659;49.234;-2.094;2023-02-14T07:16:44;101900.51;;;25.47;23.51
73242;BME280;65659;49.234;-2.094;2023-02-14T07:19:10;101904.55;;;25.49;23.49
73242;BME280;65659;49.234;-2.094;2023-02-14T07:21:36;101902.87;;;25.49;23.50
73242;BME280;65659;49.234;-2.094;2023-02-14T07:24:01;101904.04;;;25.49;23.62
73242;BME280;65659;49.234;-2.094;2023-02-14T07:26:27;101908.38;;;25.82;23.42
73242;BME280;65659;49.234;-2.094;2023-02-14T07:28:52;101912.73;;;25.59;23.28
73242;BME280;65659;49.234;-2.094;2023-02-14T07:31:18;101914.65;;;25.55;23.60
73242;BME280;65659;49.234;-2.094;2023-02-14T07:33:44;101912.59;;;25.78;23.45
73242;BME280;65659;49.234;-2.094;2023-02-14T07:36:09;101916.17;;;25.77;23.50
73242;BME280;65659;49.234;-2.094;2023-02-14T07:38:35;101919.53;;;25.49;23.47
73242;BME280;65659;49.234;-2.094;2023-02-14T07:41:00;101919.40;;;25.69;23.51
73242;BME280;65659;49.234;-2.094;2023-02-14T07:43:26;101920.69;;;25.71;23.46
73242;BME280;65659;49.234;-2.094;2023-02-14T07:45:51;101922.48;;;25.94;23.52
73242;BME280;65659;49.234;-2.094;2023-02-14T07:48:17;101918.33;;;25.49;23.44
73242;BME280;65659;49.234;-2.094;2023-02-14T07:50:42;101919.27;;;25.74;23.47
73242;BME280;65659;49.234;-2.094;2023-02-14T07:53:08;101920.37;;;25.49;23.47
73242;BME280;65659;49.234;-2.094;2023-02-14T07:55:34;101919.19;;;25.74;23.43
73242;BME280;65659;49.234;-2.094;2023-02-14T07:58:00;101924.07;;;25.93;23.55
73242;BME280;65659;49.234;-2.094;2023-02-14T08:00:25;101926.64;;;25.50;23.57
73242;BME280;65659;49.234;-2.094;2023-02-14T08:02:50;101928.05;;;25.60;23.53
73242;BME280;65659;49.234;-2.094;2023-02-14T08:05:21;101928.62;;;25.58;23.46
73242;BME280;65659;49.234;-2.094;2023-02-14T08:07:41;101929.79;;;25.56;23.56
73242;BME280;65659;49.234;-2.094;2023-02-14T08:10:07;101931.05;;;25.55;23.65
73242;BME280;65659;49.234;-2.094;2023-02-14T08:12:33;101933.06;;;25.56;23.40
73242;BME280;65659;49.234;-2.094;2023-02-14T08:14:59;101932.87;;;25.60;23.44
73242;BME280;65659;49.234;-2.094;2023-02-14T08:17:24;101934.28;;;25.81;23.44
73242;BME280;65659;49.234;-2.094;2023-02-14T08:19:49;101935.24;;;25.59;23.54
73242;BME280;65659;49.234;-2.094;2023-02-14T08:22:14;101935.04;;;25.59;23.35
73242;BME280;65659;49.234;-2.094;2023-02-14T08:24:40;101936.08;;;25.86;23.44
73242;BME280;65659;49.234;-2.094;2023-02-14T08:27:05;101936.73;;;25.63;23.51
73242;BME280;65659;49.234;-2.094;2023-02-14T08:29:31;101938.56;;;25.86;23.64
73242;BME280;65659;49.234;-2.094;2023-02-14T08:31:56;101940.98;;;25.63;23.65
73242;BME280;65659;49.234;-2.094;2023-02-14T08:34:22;101940.40;;;25.65;23.61
73242;BME280;65659;49.234;-2.094;2023-02-14T08:36:47;101935.37;;;25.69;23.61
73242;BME280;65659;49.234;-2.094;2023-02-14T08:39:12;101932.48;;;25.71;23.58
73242;BME280;65659;49.234;-2.094;2023-02-14T08:41:38;101933.87;;;25.49;23.66
73242;BME280;65659;49.234;-2.094;2023-02-14T08:44:04;101933.11;;;25.74;23.46
73242;BME280;65659;49.234;-2.094;2023-02-14T08:46:30;101932.08;;;25.74;23.56
73242;BME280;65659;49.234;-2.094;2023-02-14T08:48:55;101931.68;;;25.72;23.52
73242;BME280;65659;49.234;-2.094;2023-02-14T08:51:24;101933.47;;;25.70;23.56
73242;BME280;65659;49.234;-2.094;2023-02-14T08:53:49;101932.28;;;25.73;23.78
73242;BME280;65659;49.234;-2.094;2023-02-14T08:56:13;101928.60;;;25.76;23.54
73242;BME280;65659;49.234;-2.094;2023-02-14T08:58:38;101930.58;;;25.82;23.62
73242;BME280;65659;49.234;-2.094;2023-02-14T09:01:09;101927.75;;;26.02;23.54
73242;BME280;65659;49.234;-2.094;2023-02-14T09:03:30;101927.89;;;25.86;23.49
73242;BME280;65659;49.234;-2.094;2023-02-14T09:05:54;101922.39;;;25.81;23.57
73242;BME280;65659;49.234;-2.094;2023-02-14T09:08:19;101921.26;;;25.91;23.60
73242;BME280;65659;49.234;-2.094;2023-02-14T09:10:46;101918.36;;;25.96;23.54
73242;BME280;65659;49.234;-2.094;2023-02-14T09:13:10;101918.99;;;26.08;23.43
73242;BME280;65659;49.234;-2.094;2023-02-14T09:15:36;101917.61;;;26.10;23.37
73242;BME280;65659;49.234;-2.094;2023-02-14T09:18:02;101918.09;;;26.14;23.26
73242;BME280;65659;49.234;-2.094;2023-02-14T09:20:28;101914.08;;;26.14;23.19
73242;BME280;65659;49.234;-2.094;2023-02-14T09:22:59;101911.69;;;26.08;23.54
73242;BME280;65659;49.234;-2.094;2023-02-14T09:25:26;101905.81;;;26.15;23.26
73242;BME280;65659;49.234;-2.094;2023-02-14T09:28:13;101904.04;;;26.12;23.24
73242;BME280;65659;49.234;-2.094;2023-02-14T09:30:21;101903.16;;;25.65;23.28
73242;BME280;65659;49.234;-2.094;2023-02-14T09:32:38;101900.85;;;26.14;23.20
73242;BME280;65659;49.234;-2.094;2023-02-14T09:35:02;101900.94;;;24.60;22.66
73242;BME280;65659;49.234;-2.094;2023-02-14T09:37:27;101897.44;;;25.33;21.73
73242;BME280;65659;49.234;-2.094;2023-02-14T09:39:53;101895.39;;;25.75;21.07
73242;BME280;65659;49.234;-2.094;2023-02-14T09:42:30;101898.00;;;26.13;20.82
73242;BME280;65659;49.234;-2.094;2023-02-14T09:45:13;101894.86;;;27.75;20.97
73242;BME280;65659;49.234;-2.094;2023-02-14T09:47:24;101896.86;;;27.23;21.81
73242;BME280;65659;49.234;-2.094;2023-02-14T09:49:57;101903.19;;;26.57;22.39
73242;BME280;65659;49.234;-2.094;2023-02-14T09:52:14;101900.88;;;26.00;22.78
73242;BME280;65659;49.234;-2.094;2023-02-14T09:54:35;101902.40;;;26.15;22.78
73242;BME280;65659;49.234;-2.094;2023-02-14T09:57:14;101899.21;;;26.25;22.87
73242;BME280;65659;49.234;-2.094;2023-02-14T09:59:25;101904.74;;;26.13;23.12
73242;BME280;65659;49.234;-2.094;2023-02-14T10:01:58;101904.08;;;26.29;23.00
73242;BME280;65659;49.234;-2.094;2023-02-14T10:04:23;101906.29;;;26.03;22.95
73242;BME280;65659;49.234;-2.094;2023-02-14T10:06:47;101905.99;;;26.04;23.13
73242;BME280;65659;49.234;-2.094;2023-02-14T10:09:18;101905.23;;;26.03;23.14
73242;BME280;65659;49.234;-2.094;2023-02-14T10:11:29;101902.26;;;26.12;23.20
73242;BME280;65659;49.234;-2.094;2023-02-14T10:13:55;101904.29;;;26.18;23.18
73242;BME280;65659;49.234;-2.094;2023-02-14T10:16:27;101901.27;;;26.17;23.20
73242;BME280;65659;49.234;-2.094;2023-02-14T10:21:12;101899.77;;;26.21;23.17
73242;BME280;65659;49.234;-2.094;2023-02-14T10:23:39;101898.26;;;25.96;23.14
73242;BME280;65659;49.234;-2.094;2023-02-14T10:26:08;101897.48;;;25.97;23.18
73242;BME280;65659;49.234;-2.094;2023-02-14T10:28:31;101893.07;;;26.46;23.19
73242;BME280;65659;49.234;-2.094;2023-02-14T10:31:10;101889.78;;;26.06;23.12
73242;BME280;65659;49.234;-2.094;2023-02-14T10:33:17;101889.27;;;24.71;22.86
73242;BME280;65659;49.234;-2.094;2023-02-14T10:35:45;101883.93;;;25.78;21.73
73242;BME280;65659;49.234;-2.094;2023-02-14T10:38:14;101884.79;;;26.14;21.01
73242;BME280;65659;49.234;-2.094;2023-02-14T10:40:42;101882.22;;;26.57;20.61
73242;BME280;65659;49.234;-2.094;2023-02-14T10:43:05;101880.51;;;26.73;20.48
73242;BME280;65659;49.234;-2.094;2023-02-14T10:45:27;101881.69;;;26.55;20.43
73242;BME280;65659;49.234;-2.094;2023-02-14T10:47:54;101880.20;;;26.92;20.30
73242;BME280;65659;49.234;-2.094;2023-02-14T10:50:18;101876.71;;;26.93;20.30
73242;BME280;65659;49.234;-2.094;2023-02-14T10:52:43;101881.21;;;26.71;20.28
73242;BME280;65659;49.234;-2.094;2023-02-14T10:55:12;101881.95;;;26.94;20.20
73242;BME280;65659;49.234;-2.094;2023-02-14T10:57:33;101879.45;;;26.67;20.36
73242;BME280;65659;49.234;-2.094;2023-02-14T11:00:00;101877.64;;;26.60;20.46
73242;BME280;65659;49.234;-2.094;2023-02-14T11:02:24;101873.58;;;26.68;20.33
73242;BME280;65659;49.234;-2.094;2023-02-14T11:04:49;101874.85;;;26.64;20.53
73242;BME280;65659;49.234;-2.094;2023-02-14T11:07:15;101870.37;;;26.94;20.68
73242;BME280;65659;49.234;-2.094;2023-02-14T11:09:40;101870.61;;;26.95;20.72
73242;BME280;65659;49.234;-2.094;2023-02-14T11:12:06;101867.84;;;26.73;20.52
73242;BME280;65659;49.234;-2.094;2023-02-14T11:14:33;101866.18;;;26.95;20.42
73242;BME280;65659;49.234;-2.094;2023-02-14T11:16:57;101864.08;;;26.69;20.80
73242;BME280;65659;49.234;-2.094;2023-02-14T11:19:26;101861.51;;;26.97;20.69
73242;BME280;65659;49.234;-2.094;2023-02-14T11:21:48;101856.64;;;26.74;20.86
73242;BME280;65659;49.234;-2.094;2023-02-14T11:24:21;101850.58;;;26.93;20.60
73242;BME280;65659;49.234;-2.094;2023-02-14T11:26:38;101849.76;;;26.78;20.89
73242;BME280;65659;49.234;-2.094;2023-02-14T11:29:09;101844.84;;;26.79;20.95
73242;BME280;65659;49.234;-2.094;2023-02-14T11:31:32;101845.95;;;26.81;20.88
73242;BME280;65659;49.234;-2.094;2023-02-14T11:33:56;101839.25;;;26.60;20.71
73242;BME280;65659;49.234;-2.094;2023-02-14T11:36:21;101837.88;;;26.88;21.03
73242;BME280;65659;49.234;-2.094;2023-02-14T11:38:54;101835.41;;;27.12;20.59
73242;BME280;65659;49.234;-2.094;2023-02-14T11:41:13;101833.95;;;27.05;20.90
73242;BME280;65659;49.234;-2.094;2023-02-14T11:43:40;101827.08;;;27.15;20.99
73242;BME280;65659;49.234;-2.094;2023-02-14T11:46:12;101821.61;;;26.68;20.77
73242;BME280;65659;49.234;-2.094;2023-02-14T11:48:30;101818.63;;;26.98;20.75
73242;BME280;65659;49.234;-2.094;2023-02-14T11:50:57;101820.97;;;26.98;20.63
73242;BME280;65659;49.234;-2.094;2023-02-14T11:53:23;101816.09;;;26.76;20.85
73242;BME280;65659;49.234;-2.094;2023-02-14T11:55:51;101807.63;;;26.91;20.66
73242;BME280;65659;49.234;-2.094;2023-02-14T11:58:26;101809.66;;;26.68;20.85
73242;BME280;65659;49.234;-2.094;2023-02-14T12:00:38;101806.09;;;26.93;20.88
73242;BME280;65659;49.234;-2.094;2023-02-14T12:03:06;101799.15;;;26.76;20.68
73242;BME280;65659;49.234;-2.094;2023-02-14T12:05:32;101797.38;;;27.05;20.94
73242;BME280;65659;49.234;-2.094;2023-02-14T12:07:56;101794.76;;;27.14;20.83
73242;BME280;65659;49.234;-2.094;2023-02-14T12:10:26;101791.71;;;27.57;20.75
73242;BME280;65659;49.234;-2.094;2023-02-14T12:12:51;101792.90;;;26.75;21.04
73242;BME280;65659;49.234;-2.094;2023-02-14T12:15:24;101789.13;;;26.99;21.09
73242;BME280;65659;49.234;-2.094;2023-02-14T12:17:38;101784.04;;;26.87;21.00
73242;BME280;65659;49.234;-2.094;2023-02-14T12:20:08;101780.15;;;26.84;20.91
73242;BME280;65659;49.234;-2.094;2023-02-14T12:22:33;101775.51;;;27.27;20.69
73242;BME280;65659;49.234;-2.094;2023-02-14T12:25:01;101772.45;;;26.77;20.93
73242;BME280;65659;49.234;-2.094;2023-02-14T12:27:24;101767.94;;;27.30;20.88
73242;BME280;65659;49.234;-2.094;2023-02-14T12:29:49;101759.50;;;27.30;21.06
73242;BME280;65659;49.234;-2.094;2023-02-14T12:32:19;101764.52;;;27.22;20.62
73242;BME280;65659;49.234;-2.094;2023-02-14T12:34:38;101761.43;;;26.64;20.76
73242;BME280;65659;49.234;-2.094;2023-02-14T12:37:22;101754.13;;;27.24;20.56
73242;BME280;65659;49.234;-2.094;2023-02-14T12:39:34;101749.71;;;27.06;20.72
73242;BME280;65659;49.234;-2.094;2023-02-14T12:42:00;101746.33;;;27.30;20.97
73242;BME280;65659;49.234;-2.094;2023-02-14T12:44:27;101745.24;;;27.08;21.23